createdAt,value
2017-08-16T00:01:13.256Z,4.30
2017-08-16T00:03:41.611Z,8.40
2017-08-16T00:06:09.980Z,5.60
2017-08-16T00:08:38.843Z,6.10
2017-08-16T00:11:07.211Z,11.83
2017-08-16T00:13:35.562Z,4.40
2017-08-16T00:16:04.246Z,7.03
2017-08-16T00:18:32.647Z,3.33
2017-08-16T00:21:00.986Z,11.90
2017-08-16T00:23:30.628Z,4.20
2017-08-16T00:25:59.007Z,11.20
2017-08-16T00:28:27.375Z,3.87
2017-08-16T00:30:56.274Z,3.80
2017-08-16T00:33:24.644Z,11.07
2017-08-16T00:35:53.052Z,14.83
2017-08-16T00:38:21.928Z,4.40
2017-08-16T00:40:50.295Z,5.87
2017-08-16T00:43:18.676Z,6.03
2017-08-16T00:45:47.598Z,11.53
2017-08-16T00:48:15.975Z,10.13
2017-08-16T00:50:44.330Z,4.43
2017-08-16T00:53:13.038Z,13.43
2017-08-16T00:55:41.397Z,7.80
2017-08-16T00:58:09.742Z,9.00
2017-08-16T01:00:38.479Z,5.10
2017-08-16T01:03:06.851Z,16.93
2017-08-16T01:05:35.207Z,10.70
2017-08-16T01:08:04.130Z,7.33
2017-08-16T01:10:32.506Z,6.80
2017-08-16T01:13:00.863Z,5.80
2017-08-16T01:15:29.509Z,9.80
2017-08-16T01:17:57.865Z,5.50
2017-08-16T01:20:26.247Z,12.93
2017-08-16T01:22:55.032Z,12.10
2017-08-16T01:25:23.435Z,8.77
2017-08-16T01:27:51.800Z,11.97
2017-08-16T01:30:20.745Z,7.10
2017-08-16T01:32:49.882Z,9.80
2017-08-16T01:35:18.283Z,11.63
2017-08-16T01:37:47.130Z,5.50
2017-08-16T01:40:15.461Z,8.70
2017-08-16T01:42:43.798Z,5.87
2017-08-16T01:45:12.807Z,7.20
2017-08-16T01:47:41.173Z,6.30
2017-08-16T01:50:09.534Z,5.37
2017-08-16T01:52:38.368Z,4.83
2017-08-16T01:55:06.737Z,5.50
2017-08-16T01:57:35.074Z,5.80
2017-08-16T02:00:03.862Z,7.53
2017-08-16T02:02:32.185Z,10.70
2017-08-16T02:05:00.495Z,5.87
2017-08-16T02:07:30.098Z,6.00
2017-08-16T02:09:58.446Z,6.07
2017-08-16T02:12:26.802Z,8.50
2017-08-16T02:14:55.574Z,13.83
2017-08-16T02:17:23.888Z,6.37
2017-08-16T02:19:52.211Z,5.53
2017-08-16T02:22:21.838Z,9.37
2017-08-16T02:24:50.189Z,7.83
2017-08-16T02:27:18.534Z,8.03
2017-08-16T02:29:47.310Z,14.80
2017-08-16T02:32:15.675Z,6.60
2017-08-16T02:34:44.027Z,6.07
2017-08-16T02:37:12.959Z,6.60
2017-08-16T02:39:41.322Z,10.50
2017-08-16T02:42:09.714Z,6.63
2017-08-16T02:44:39.405Z,5.87
2017-08-16T02:47:07.766Z,7.60
2017-08-16T02:49:36.897Z,10.53
2017-08-16T02:52:05.888Z,14.83
2017-08-16T02:54:34.237Z,17.17
2017-08-16T02:57:03.369Z,11.10
2017-08-16T02:59:32.326Z,9.20
2017-08-16T03:02:00.689Z,9.10
2017-08-16T03:04:29.039Z,6.53
2017-08-16T03:06:57.850Z,12.30
2017-08-16T03:09:26.208Z,8.97
2017-08-16T03:11:54.593Z,9.30
2017-08-16T03:14:23.440Z,17.70
2017-08-16T03:16:51.824Z,9.83
2017-08-16T03:19:20.294Z,13.17
2017-08-16T03:21:49.910Z,9.50
2017-08-16T03:24:18.250Z,9.53
2017-08-16T03:26:46.623Z,12.20
2017-08-16T03:29:15.556Z,13.30
2017-08-16T03:31:44.388Z,22.13
2017-08-16T03:34:13.351Z,13.80
2017-08-16T03:36:42.463Z,36.67
2017-08-16T03:39:10.828Z,11.37
2017-08-16T03:41:39.195Z,10.80
2017-08-16T03:44:08.124Z,11.10
2017-08-16T03:46:36.479Z,16.27
2017-08-16T03:49:04.845Z,13.00
2017-08-16T03:51:33.502Z,12.07
2017-08-16T03:54:01.877Z,12.07
2017-08-16T03:56:30.252Z,12.43
2017-08-16T03:58:59.179Z,15.90
2017-08-16T04:01:27.532Z,22.33
2017-08-16T04:03:55.886Z,16.63
2017-08-16T04:06:24.696Z,15.07
2017-08-16T04:08:53.059Z,21.40
2017-08-16T04:11:21.433Z,22.03
2017-08-16T04:13:50.195Z,27.93
2017-08-16T04:16:18.559Z,42.00
2017-08-16T04:18:46.940Z,38.03
2017-08-16T04:21:15.624Z,56.23
2017-08-16T04:23:44.288Z,51.47
2017-08-16T04:26:13.422Z,58.30
2017-08-16T04:28:42.262Z,68.43
2017-08-16T04:31:10.639Z,67.23
2017-08-16T04:33:39.029Z,78.53
2017-08-16T04:38:42.211Z,84.93
2017-08-16T04:41:11.159Z,97.13
2017-08-16T04:43:39.538Z,92.03
2017-08-16T04:46:07.904Z,90.47
2017-08-16T04:48:36.781Z,92.13
2017-08-16T04:51:05.157Z,104.70
2017-08-16T04:53:34.304Z,107.53
2017-08-16T04:56:02.995Z,108.53
2017-08-16T04:58:31.368Z,106.67
2017-08-16T05:00:59.743Z,109.93
2017-08-16T05:03:28.382Z,116.60
2017-08-16T05:05:56.737Z,131.63
2017-08-16T05:08:25.104Z,120.87
2017-08-16T05:10:53.996Z,121.30
2017-08-16T05:13:22.375Z,124.23
2017-08-16T05:15:50.794Z,145.10
2017-08-16T05:18:19.627Z,126.23
2017-08-16T05:20:47.997Z,139.37
2017-08-16T05:23:16.410Z,139.87
2017-08-16T05:25:45.276Z,135.73
2017-08-16T05:28:13.677Z,138.63
2017-08-16T05:30:42.109Z,153.33
2017-08-16T05:33:10.922Z,155.17
2017-08-16T05:35:39.299Z,148.53
2017-08-16T05:38:07.651Z,143.70
2017-08-16T05:40:36.522Z,149.10
2017-08-16T05:43:04.882Z,148.77
2017-08-16T05:45:33.281Z,153.07
2017-08-16T05:48:02.189Z,156.93
2017-08-16T05:50:30.606Z,148.83
2017-08-16T05:52:58.978Z,137.77
2017-08-16T05:55:27.672Z,166.37
2017-08-16T05:57:56.033Z,141.40
2017-08-16T06:00:25.140Z,141.13
2017-08-16T06:02:53.819Z,141.40
2017-08-16T06:05:22.168Z,146.50
2017-08-16T06:07:50.574Z,157.10
2017-08-16T06:10:19.216Z,159.90
2017-08-16T06:12:47.601Z,153.17
2017-08-16T06:15:15.967Z,142.17
2017-08-16T06:17:45.056Z,147.67
2017-08-16T06:20:13.464Z,163.83
2017-08-16T06:22:41.854Z,166.93
2017-08-16T06:25:10.591Z,158.43
2017-08-16T06:27:38.984Z,166.47
2017-08-16T06:30:07.571Z,168.10
2017-08-16T06:32:36.517Z,166.83
2017-08-16T06:35:04.876Z,167.93
2017-08-16T06:37:34.023Z,179.17
2017-08-16T06:40:03.000Z,183.30
2017-08-16T06:42:31.364Z,183.33
2017-08-16T06:44:59.767Z,167.60
2017-08-16T06:47:28.463Z,157.97
2017-08-16T06:49:56.852Z,158.50
2017-08-16T06:52:25.235Z,167.77
2017-08-16T06:54:54.005Z,153.57
2017-08-16T06:57:22.399Z,149.73
2017-08-16T06:59:52.119Z,162.50
2017-08-16T07:02:21.207Z,149.67
2017-08-16T07:04:49.563Z,155.30
2017-08-16T07:07:17.941Z,150.23
2017-08-16T07:09:46.825Z,138.50
2017-08-16T07:12:15.197Z,139.47
2017-08-16T07:14:45.148Z,133.27
2017-08-16T07:17:13.827Z,140.77
2017-08-16T07:19:42.287Z,137.07
2017-08-16T07:22:10.636Z,125.10
2017-08-16T07:24:39.765Z,113.50
2017-08-16T07:27:08.155Z,99.90
2017-08-16T07:29:36.520Z,92.73
2017-08-16T07:32:05.425Z,88.60
2017-08-16T07:34:33.774Z,97.87
2017-08-16T07:37:02.883Z,92.30
2017-08-16T07:39:31.666Z,92.03
2017-08-16T07:42:00.014Z,90.17
2017-08-16T07:44:28.423Z,89.77
2017-08-16T07:46:57.351Z,84.33
2017-08-16T07:49:25.727Z,79.33
2017-08-16T07:51:54.105Z,87.43
2017-08-16T07:54:22.994Z,82.70
2017-08-16T07:56:51.366Z,75.33
2017-08-16T07:59:19.776Z,70.43
2017-08-16T08:01:48.515Z,72.40
2017-08-16T08:04:16.933Z,70.53
2017-08-16T08:06:45.389Z,73.37
2017-08-16T08:09:14.485Z,64.30
2017-08-16T08:11:42.871Z,70.93
2017-08-16T08:14:11.839Z,73.77
2017-08-16T08:16:41.617Z,65.90
2017-08-16T08:19:11.057Z,66.30
2017-08-16T08:21:39.588Z,65.70
2017-08-16T08:24:09.275Z,64.03
2017-08-16T08:26:38.287Z,60.27
2017-08-16T08:29:07.311Z,64.77
2017-08-16T08:31:36.376Z,78.03
2017-08-16T08:34:04.777Z,57.70
2017-08-16T08:36:33.142Z,53.53
2017-08-16T08:39:01.982Z,57.43
2017-08-16T08:41:32.309Z,58.03
2017-08-16T08:44:00.666Z,54.53
2017-08-16T08:46:29.488Z,40.53
2017-08-16T08:48:57.852Z,46.33
2017-08-16T08:51:27.080Z,46.93
2017-08-16T08:53:56.234Z,43.63
2017-08-16T08:56:24.574Z,47.87
2017-08-16T08:58:52.949Z,43.23
2017-08-16T09:01:21.740Z,42.03
2017-08-16T09:03:50.147Z,35.50
2017-08-16T09:06:19.295Z,33.50
2017-08-16T09:08:48.144Z,34.63
2017-08-16T09:11:16.555Z,32.43
2017-08-16T09:13:44.917Z,32.07
2017-08-16T09:16:14.783Z,35.17
2017-08-16T09:18:43.165Z,28.00
2017-08-16T09:21:11.577Z,23.87
2017-08-16T09:23:40.334Z,23.33
2017-08-16T09:26:08.706Z,17.70
2017-08-16T09:28:37.073Z,18.40
2017-08-16T09:31:05.874Z,18.30
2017-08-16T09:33:34.254Z,15.33
2017-08-16T09:36:02.620Z,19.20
2017-08-16T09:38:31.924Z,17.63
2017-08-16T09:41:00.431Z,20.13
2017-08-16T09:43:30.110Z,14.90
2017-08-16T09:45:59.943Z,20.20
2017-08-16T09:48:28.817Z,16.90
2017-08-16T09:50:57.282Z,19.50
2017-08-16T09:53:26.503Z,19.37
2017-08-16T09:55:57.066Z,15.97
2017-08-16T09:58:25.493Z,20.03
2017-08-16T10:00:54.583Z,18.10
2017-08-16T10:03:22.932Z,11.17
2017-08-16T10:05:51.459Z,10.50
2017-08-16T10:08:20.498Z,12.30
2017-08-16T10:10:48.921Z,10.90
2017-08-16T10:13:17.275Z,17.30
2017-08-16T10:15:46.809Z,10.53
2017-08-16T10:18:15.262Z,9.00
2017-08-16T10:20:43.999Z,7.63
2017-08-16T10:23:12.997Z,14.83
2017-08-16T10:25:42.184Z,17.33
2017-08-16T10:28:11.790Z,7.83
2017-08-16T10:30:40.733Z,10.27
2017-08-16T10:33:10.420Z,13.90
2017-08-16T10:35:39.375Z,12.60
2017-08-16T10:38:08.535Z,6.77
2017-08-16T10:40:39.302Z,8.10
2017-08-16T10:43:07.700Z,9.43
2017-08-16T10:45:37.604Z,11.53
2017-08-16T10:48:07.018Z,15.37
2017-08-16T10:50:36.930Z,9.30
2017-08-16T10:53:05.844Z,8.40
2017-08-16T10:55:34.540Z,10.97
2017-08-16T10:58:03.697Z,8.53
2017-08-16T11:00:32.422Z,7.20
2017-08-16T11:03:00.782Z,7.60
2017-08-16T11:05:30.895Z,10.93
2017-08-16T11:07:59.881Z,11.33
2017-08-16T11:10:28.255Z,7.67
2017-08-16T11:12:56.657Z,7.97
2017-08-16T11:15:27.380Z,6.83
2017-08-16T11:17:55.912Z,4.90
2017-08-16T11:20:24.437Z,4.47
2017-08-16T11:22:53.180Z,6.40
2017-08-16T11:25:21.525Z,8.00
2017-08-16T11:27:49.877Z,2.47
2017-08-16T11:30:18.766Z,6.13
2017-08-16T11:32:47.139Z,4.93
2017-08-16T11:35:15.569Z,8.60
2017-08-16T11:37:44.457Z,8.20
2017-08-16T11:40:12.792Z,10.37
2017-08-16T11:42:41.911Z,3.10
2017-08-16T11:45:10.598Z,4.83
2017-08-16T11:47:38.962Z,2.20
2017-08-16T11:50:07.596Z,3.00
2017-08-16T11:52:36.398Z,4.37
2017-08-16T11:55:04.765Z,4.23
2017-08-16T11:57:33.414Z,3.60
2017-08-16T12:00:02.557Z,3.70
2017-08-16T12:02:31.246Z,3.23
2017-08-16T12:05:01.416Z,6.93
2017-08-16T12:07:31.191Z,2.20
2017-08-16T12:09:59.545Z,2.10
2017-08-16T12:12:27.947Z,1.87
2017-08-16T12:14:57.995Z,8.43
2017-08-16T12:17:27.259Z,2.30
2017-08-16T12:19:55.994Z,3.70
2017-08-16T12:22:25.583Z,2.13
2017-08-16T12:24:54.218Z,3.53
2017-08-16T12:27:23.117Z,2.97
2017-08-16T12:29:51.984Z,2.63
2017-08-16T12:32:21.051Z,2.70
2017-08-16T12:34:50.810Z,2.80
2017-08-16T12:37:20.830Z,2.73
2017-08-16T12:39:49.846Z,2.37
2017-08-16T12:42:19.974Z,2.00
2017-08-16T12:44:49.376Z,2.70
2017-08-16T12:47:19.542Z,1.70
2017-08-16T12:49:50.381Z,2.33
2017-08-16T12:52:19.564Z,1.83
2017-08-16T12:54:49.373Z,2.10
2017-08-16T12:57:19.617Z,2.70
2017-08-16T12:59:48.559Z,3.97
2017-08-16T13:02:16.922Z,2.70
2017-08-16T13:04:45.287Z,4.27
2017-08-16T13:07:13.946Z,6.63
2017-08-16T13:09:42.324Z,2.83
2017-08-16T13:12:10.823Z,2.60
2017-08-16T13:14:39.846Z,2.90
2017-08-16T13:17:08.193Z,2.70
2017-08-16T13:19:36.565Z,12.13
2017-08-16T13:22:05.259Z,2.20
2017-08-16T13:24:33.625Z,8.87
2017-08-16T13:27:01.997Z,5.37
2017-08-16T13:29:30.662Z,3.60
2017-08-16T13:31:59.009Z,5.67
2017-08-16T13:34:27.359Z,2.10
2017-08-16T13:36:56.125Z,1.67
2017-08-16T13:39:24.487Z,2.70
2017-08-16T13:41:52.853Z,9.13
2017-08-16T13:44:21.799Z,2.03
2017-08-16T13:46:50.149Z,3.90
2017-08-16T13:49:18.593Z,3.27
2017-08-16T13:51:47.221Z,4.57
2017-08-16T13:54:15.601Z,2.17
2017-08-16T13:56:43.986Z,3.73
2017-08-16T13:59:12.878Z,3.00
2017-08-16T14:01:41.251Z,2.00
2017-08-16T14:04:09.594Z,5.13
2017-08-16T14:06:38.757Z,5.17
2017-08-16T14:09:07.099Z,1.90
2017-08-16T14:11:35.471Z,2.57
2017-08-16T14:14:04.612Z,2.77
2017-08-16T14:16:32.978Z,2.70
2017-08-16T14:19:01.358Z,10.03
2017-08-16T14:21:30.428Z,2.07
2017-08-16T14:23:58.821Z,2.60
2017-08-16T14:26:27.214Z,7.13
2017-08-16T14:28:56.225Z,4.53
2017-08-16T14:31:24.575Z,1.93
2017-08-16T14:33:52.975Z,1.70
2017-08-16T14:36:22.041Z,1.83
2017-08-16T14:38:50.429Z,1.90
2017-08-16T14:41:18.775Z,2.13
2017-08-16T14:43:47.481Z,1.90
2017-08-16T14:46:15.855Z,9.10
2017-08-16T14:48:44.242Z,4.50
2017-08-16T14:51:13.176Z,3.47
2017-08-16T14:53:41.561Z,5.80
2017-08-16T14:56:09.914Z,4.23
2017-08-16T14:58:38.702Z,2.20
2017-08-16T15:01:07.082Z,4.50
2017-08-16T15:03:35.482Z,1.90
2017-08-16T15:06:04.345Z,1.43
2017-08-16T15:08:32.683Z,2.20
2017-08-16T15:11:01.078Z,7.43
2017-08-16T15:13:30.006Z,5.07
2017-08-16T15:15:58.349Z,3.33
2017-08-16T15:18:27.494Z,4.00
2017-08-16T15:20:56.204Z,3.43
2017-08-16T15:23:24.584Z,5.13
2017-08-16T15:25:52.981Z,2.17
2017-08-16T15:28:21.824Z,4.10
2017-08-16T15:30:50.236Z,1.60
2017-08-16T15:33:18.592Z,1.77
2017-08-16T15:35:47.639Z,1.80
2017-08-16T15:38:16.023Z,10.10
2017-08-16T15:40:44.384Z,3.37
2017-08-16T15:43:14.061Z,3.87
2017-08-16T15:45:42.411Z,3.43
2017-08-16T15:48:10.801Z,3.03
2017-08-16T15:50:39.430Z,1.93
2017-08-16T15:53:07.799Z,2.03
2017-08-16T15:55:36.210Z,2.83
2017-08-16T15:58:05.260Z,5.80
2017-08-16T16:00:33.663Z,1.90
2017-08-16T16:03:02.073Z,2.83
2017-08-16T16:05:30.969Z,2.00
2017-08-16T16:07:59.302Z,2.23
2017-08-16T16:10:27.656Z,5.37
2017-08-16T16:12:56.446Z,2.53
2017-08-16T16:15:24.798Z,1.80
2017-08-16T16:17:53.199Z,7.57
2017-08-16T16:20:22.072Z,5.07
2017-08-16T16:22:50.473Z,2.20
2017-08-16T16:25:18.830Z,2.47
2017-08-16T16:27:47.474Z,3.03
2017-08-16T16:30:15.835Z,2.10
2017-08-16T16:32:44.188Z,1.43
2017-08-16T16:35:12.953Z,4.83
2017-08-16T16:37:41.311Z,8.90
2017-08-16T16:40:10.426Z,6.93
2017-08-16T16:42:39.206Z,2.33
2017-08-16T16:45:07.559Z,2.10
2017-08-16T16:47:35.948Z,6.60
2017-08-16T16:50:04.604Z,13.40
2017-08-16T16:52:32.948Z,6.33
2017-08-16T16:55:01.318Z,5.77
2017-08-16T16:57:30.133Z,7.43
2017-08-16T16:59:58.488Z,3.73
2017-08-16T17:02:26.858Z,3.03
2017-08-16T17:04:55.648Z,7.97
2017-08-16T17:07:24.058Z,7.83
2017-08-16T17:09:52.414Z,4.73
2017-08-16T17:12:21.040Z,3.80
2017-08-16T17:14:49.417Z,6.63
2017-08-16T17:17:17.778Z,2.77
2017-08-16T17:19:46.440Z,3.00
2017-08-16T17:22:14.814Z,2.53
2017-08-16T17:24:43.941Z,4.27
2017-08-16T17:27:13.148Z,12.03
2017-08-16T17:29:41.518Z,2.93
2017-08-16T17:32:09.885Z,6.73
2017-08-16T17:34:38.776Z,5.77
2017-08-16T17:37:07.134Z,7.07
2017-08-16T17:39:35.520Z,12.83
2017-08-16T17:42:04.449Z,2.60
2017-08-16T17:44:32.822Z,3.37
2017-08-16T17:47:01.200Z,3.00
2017-08-16T17:49:30.516Z,3.50
2017-08-16T17:51:58.885Z,5.00
2017-08-16T17:54:27.226Z,5.03
2017-08-16T17:56:56.098Z,10.47
2017-08-16T17:59:24.452Z,4.00
2017-08-16T18:01:52.795Z,5.37
2017-08-16T18:04:21.635Z,5.03
2017-08-16T18:06:49.966Z,2.80
2017-08-16T18:09:18.315Z,2.60
2017-08-16T18:11:47.102Z,5.33
2017-08-16T18:14:16.206Z,9.33
2017-08-16T18:16:45.375Z,2.63
2017-08-16T18:19:14.029Z,10.80
2017-08-16T18:21:42.378Z,9.50
2017-08-16T18:24:10.744Z,5.70
2017-08-16T18:26:40.400Z,10.03
2017-08-16T18:29:08.815Z,7.50
2017-08-16T18:31:37.222Z,4.87
2017-08-16T18:34:06.139Z,3.77
2017-08-16T18:36:34.527Z,4.73
2017-08-16T18:39:02.922Z,11.90
2017-08-16T18:41:31.538Z,6.10
2017-08-16T18:43:59.939Z,4.07
2017-08-16T18:46:28.337Z,4.10
2017-08-16T18:48:57.209Z,16.57
2017-08-16T18:51:25.627Z,5.87
2017-08-16T18:53:54.040Z,19.33
2017-08-16T18:56:22.990Z,6.53
2017-08-16T18:58:51.359Z,7.20
2017-08-16T19:01:20.982Z,5.80
2017-08-16T19:03:49.672Z,3.67
2017-08-16T19:06:18.077Z,6.47
2017-08-16T19:08:46.443Z,9.00
2017-08-16T19:11:15.114Z,8.80
2017-08-16T19:13:43.470Z,7.60
2017-08-16T19:16:11.863Z,6.67
2017-08-16T19:18:40.966Z,7.53
2017-08-16T19:21:09.352Z,14.03
2017-08-16T19:23:37.757Z,10.73
2017-08-16T19:26:06.826Z,12.30
2017-08-16T19:28:35.208Z,16.30
2017-08-16T19:31:03.564Z,20.07
2017-08-16T19:33:32.467Z,13.23
2017-08-16T19:36:00.824Z,13.20
2017-08-16T19:38:29.203Z,6.73
2017-08-16T19:40:58.099Z,11.30
2017-08-16T19:43:26.484Z,23.70
2017-08-16T19:45:54.856Z,4.57
2017-08-16T19:48:23.735Z,9.93
2017-08-16T19:50:52.084Z,18.00
2017-08-16T19:53:20.447Z,12.80
2017-08-16T19:55:49.277Z,9.93
2017-08-16T19:58:18.420Z,4.90
2017-08-16T20:00:46.796Z,5.03
2017-08-16T20:03:15.517Z,6.20
2017-08-16T20:05:43.873Z,5.27
2017-08-16T20:08:12.248Z,7.13
2017-08-16T20:10:40.927Z,5.60
2017-08-16T20:13:09.285Z,5.50
2017-08-16T20:15:37.677Z,8.23
2017-08-16T20:18:06.350Z,13.60
2017-08-16T20:20:34.730Z,9.97
2017-08-16T20:23:03.102Z,7.60
2017-08-16T20:25:31.881Z,7.87
2017-08-16T20:28:02.120Z,9.90
2017-08-16T20:30:30.462Z,17.83
2017-08-16T20:32:59.298Z,6.93
2017-08-16T20:35:27.673Z,11.27
2017-08-16T20:37:56.045Z,15.80
2017-08-16T20:40:25.543Z,7.57
2017-08-16T20:42:53.921Z,24.53
2017-08-16T20:45:23.060Z,19.13
2017-08-16T20:47:51.841Z,9.93
2017-08-16T20:50:20.241Z,8.30
2017-08-16T20:52:48.587Z,11.47
2017-08-16T20:55:17.260Z,8.97
2017-08-16T20:57:45.694Z,12.33
2017-08-16T21:00:14.044Z,6.17
2017-08-16T21:02:42.735Z,7.23
2017-08-16T21:05:11.113Z,15.73
2017-08-16T21:07:39.486Z,8.43
2017-08-16T21:10:08.373Z,11.53
2017-08-16T21:12:36.728Z,7.40
2017-08-16T21:15:05.109Z,10.30
2017-08-16T21:17:34.067Z,9.60
2017-08-16T21:20:02.464Z,8.70
2017-08-16T21:22:30.813Z,9.90
2017-08-16T21:24:59.734Z,10.83
2017-08-16T21:27:28.868Z,6.80
2017-08-16T21:29:57.278Z,13.47
2017-08-16T21:32:26.126Z,6.00
2017-08-16T21:34:54.557Z,7.20
2017-08-16T21:37:22.927Z,6.43
2017-08-16T21:39:51.590Z,11.10
2017-08-16T21:42:19.974Z,8.50
2017-08-16T21:44:48.384Z,13.63
2017-08-16T21:47:17.250Z,16.17
2017-08-16T21:49:45.649Z,5.63
2017-08-16T21:52:14.043Z,7.70
2017-08-16T21:54:42.933Z,7.17
2017-08-16T21:57:11.461Z,7.13
2017-08-16T21:59:39.846Z,15.20
2017-08-16T22:02:08.562Z,9.43
2017-08-16T22:04:36.934Z,10.23
2017-08-16T22:07:05.300Z,8.63
2017-08-16T22:09:34.055Z,13.80
2017-08-16T22:12:03.185Z,17.57
2017-08-16T22:14:31.543Z,23.30
2017-08-16T22:17:00.655Z,7.30
2017-08-16T22:19:29.940Z,9.13
2017-08-16T22:21:58.317Z,13.63
2017-08-16T22:24:27.005Z,7.77
2017-08-16T22:26:55.623Z,12.20
2017-08-16T22:29:24.032Z,29.57
2017-08-16T22:31:53.063Z,18.63
2017-08-16T22:34:21.503Z,11.37
2017-08-16T22:36:49.876Z,12.23
2017-08-16T22:39:18.861Z,19.63
2017-08-16T22:41:47.259Z,13.70
2017-08-16T22:44:15.633Z,15.10
2017-08-16T22:46:45.078Z,8.03
2017-08-16T22:49:13.483Z,11.10
2017-08-16T22:51:41.853Z,10.03
2017-08-16T22:54:10.501Z,7.30
2017-08-16T22:56:38.900Z,8.47
2017-08-16T22:59:08.069Z,6.50
2017-08-16T23:01:37.119Z,6.70
2017-08-16T23:04:05.504Z,11.93
2017-08-16T23:06:33.857Z,8.90
2017-08-16T23:09:03.394Z,6.63
2017-08-16T23:11:32.417Z,7.53
2017-08-16T23:14:01.673Z,8.57
2017-08-16T23:16:30.446Z,13.03
2017-08-16T23:18:58.798Z,22.33
2017-08-16T23:21:29.667Z,11.30
2017-08-16T23:23:59.586Z,22.20
2017-08-16T23:26:28.140Z,12.80
2017-08-16T23:28:56.500Z,11.50
2017-08-16T23:31:25.338Z,6.77
2017-08-16T23:33:53.714Z,8.87
2017-08-16T23:36:22.166Z,6.60
2017-08-16T23:38:51.691Z,6.17
2017-08-16T23:41:20.039Z,8.37
2017-08-16T23:43:48.452Z,8.20
2017-08-16T23:46:17.442Z,9.97
2017-08-16T23:48:45.793Z,8.50
2017-08-16T23:51:14.202Z,12.33
2017-08-16T23:53:43.120Z,12.13
2017-08-16T23:56:11.544Z,10.20
2017-08-16T23:58:40.083Z,14.90
